sensor_id;sensor_type;location;lat;lon;timestamp;P1;durP1;ratioP1;P2;durP2;ratioP2
23290;SDS011;11814;44.686;10.842;2023-04-27T00:01:36;9.73;;;4.95;;
23290;SDS011;11814;44.686;10.842;2023-04-27T00:04:02;7.90;;;4.78;;
23290;SDS011;11814;44.686;10.842;2023-04-27T00:06:28;11.15;;;4.57;;
23290;SDS011;11814;44.686;10.842;2023-04-27T00:08:54;6.57;;;4.68;;
23290;SDS011;11814;44.686;10.842;2023-04-27T00:11:20;8.48;;;4.50;;
23290;SDS011;11814;44.686;10.842;2023-04-27T00:13:46;5.93;;;4.15;;
23290;SDS011;11814;44.686;10.842;2023-04-27T00:16:12;5.82;;;4.60;;
23290;SDS011;11814;44.686;10.842;2023-04-27T00:18:38;8.25;;;4.50;;
23290;SDS011;11814;44.686;10.842;2023-04-27T00:21:04;7.38;;;4.57;;
23290;SDS011;11814;44.686;10.842;2023-04-27T00:23:30;6.40;;;4.38;;
23290;SDS011;11814;44.686;10.842;2023-04-27T00:25:55;8.85;;;4.55;;
23290;SDS011;11814;44.686;10.842;2023-04-27T00:28:21;9.23;;;4.97;;
23290;SDS011;11814;44.686;10.842;2023-04-27T00:30:47;10.55;;;5.22;;
23290;SDS011;11814;44.686;10.842;2023-04-27T00:33:13;7.10;;;4.85;;
23290;SDS011;11814;44.686;10.842;2023-04-27T00:35:38;8.23;;;5.20;;
23290;SDS011;11814;44.686;10.842;2023-04-27T00:38:04;9.02;;;5.72;;
23290;SDS011;11814;44.686;10.842;2023-04-27T00:40:30;6.68;;;5.13;;
23290;SDS011;11814;44.686;10.842;2023-04-27T00:42:56;6.22;;;4.50;;
23290;SDS011;11814;44.686;10.842;2023-04-27T00:45:21;6.78;;;4.32;;
23290;SDS011;11814;44.686;10.842;2023-04-27T00:47:47;8.02;;;5.10;;
23290;SDS011;11814;44.686;10.842;2023-04-27T00:50:13;8.23;;;5.47;;
23290;SDS011;11814;44.686;10.842;2023-04-27T00:52:40;8.38;;;4.82;;
23290;SDS011;11814;44.686;10.842;2023-04-27T00:55:07;5.68;;;4.30;;
23290;SDS011;11814;44.686;10.842;2023-04-27T00:57:33;8.43;;;5.07;;
23290;SDS011;11814;44.686;10.842;2023-04-27T00:59:59;7.32;;;4.95;;
23290;SDS011;11814;44.686;10.842;2023-04-27T01:02:29;8.88;;;4.93;;
23290;SDS011;11814;44.686;10.842;2023-04-27T01:04:54;6.43;;;5.15;;
23290;SDS011;11814;44.686;10.842;2023-04-27T01:07:24;11.10;;;5.65;;
23290;SDS011;11814;44.686;10.842;2023-04-27T01:09:50;9.02;;;5.22;;
23290;SDS011;11814;44.686;10.842;2023-04-27T01:12:16;9.05;;;5.00;;
23290;SDS011;11814;44.686;10.842;2023-04-27T01:14:42;8.18;;;5.40;;
23290;SDS011;11814;44.686;10.842;2023-04-27T01:17:08;9.82;;;5.60;;
23290;SDS011;11814;44.686;10.842;2023-04-27T01:19:34;6.30;;;4.95;;
23290;SDS011;11814;44.686;10.842;2023-04-27T01:22:00;6.05;;;4.63;;
23290;SDS011;11814;44.686;10.842;2023-04-27T01:24:26;9.85;;;5.50;;
23290;SDS011;11814;44.686;10.842;2023-04-27T01:26:51;8.27;;;6.28;;
23290;SDS011;11814;44.686;10.842;2023-04-27T01:29:18;7.22;;;5.90;;
23290;SDS011;11814;44.686;10.842;2023-04-27T01:31:44;6.85;;;5.32;;
23290;SDS011;11814;44.686;10.842;2023-04-27T01:34:10;7.75;;;5.50;;
23290;SDS011;11814;44.686;10.842;2023-04-27T01:36:36;8.23;;;5.28;;
23290;SDS011;11814;44.686;10.842;2023-04-27T01:39:02;9.60;;;5.40;;
23290;SDS011;11814;44.686;10.842;2023-04-27T01:41:28;7.47;;;5.63;;
23290;SDS011;11814;44.686;10.842;2023-04-27T01:43:54;8.30;;;6.00;;
23290;SDS011;11814;44.686;10.842;2023-04-27T01:46:20;7.93;;;5.90;;
23290;SDS011;11814;44.686;10.842;2023-04-27T01:48:45;8.60;;;5.53;;
23290;SDS011;11814;44.686;10.842;2023-04-27T01:51:11;6.35;;;5.75;;
23290;SDS011;11814;44.686;10.842;2023-04-27T01:53:37;7.50;;;5.32;;
23290;SDS011;11814;44.686;10.842;2023-04-27T01:56:03;8.82;;;6.70;;
23290;SDS011;11814;44.686;10.842;2023-04-27T01:58:29;10.38;;;6.40;;
23290;SDS011;11814;44.686;10.842;2023-04-27T02:00:54;12.23;;;7.60;;
23290;SDS011;11814;44.686;10.842;2023-04-27T02:03:20;15.30;;;7.00;;
23290;SDS011;11814;44.686;10.842;2023-04-27T02:05:46;12.20;;;7.30;;
23290;SDS011;11814;44.686;10.842;2023-04-27T02:08:12;10.07;;;7.03;;
23290;SDS011;11814;44.686;10.842;2023-04-27T02:10:38;12.57;;;7.55;;
23290;SDS011;11814;44.686;10.842;2023-04-27T02:13:03;10.63;;;7.18;;
23290;SDS011;11814;44.686;10.842;2023-04-27T02:15:29;9.15;;;6.93;;
23290;SDS011;11814;44.686;10.842;2023-04-27T02:17:55;11.30;;;7.47;;
23290;SDS011;11814;44.686;10.842;2023-04-27T02:20:21;8.48;;;7.47;;
23290;SDS011;11814;44.686;10.842;2023-04-27T02:22:47;10.25;;;7.75;;
23290;SDS011;11814;44.686;10.842;2023-04-27T02:25:12;10.60;;;7.75;;
23290;SDS011;11814;44.686;10.842;2023-04-27T02:27:39;10.25;;;7.25;;
23290;SDS011;11814;44.686;10.842;2023-04-27T02:32:32;14.70;;;7.63;;
23290;SDS011;11814;44.686;10.842;2023-04-27T02:34:58;10.68;;;7.57;;
23290;SDS011;11814;44.686;10.842;2023-04-27T02:37:24;9.98;;;7.57;;
23290;SDS011;11814;44.686;10.842;2023-04-27T02:39:50;13.35;;;7.65;;
23290;SDS011;11814;44.686;10.842;2023-04-27T02:42:16;10.82;;;8.00;;
23290;SDS011;11814;44.686;10.842;2023-04-27T02:44:42;10.75;;;7.38;;
23290;SDS011;11814;44.686;10.842;2023-04-27T02:47:08;7.80;;;5.75;;
23290;SDS011;11814;44.686;10.842;2023-04-27T02:49:34;7.43;;;5.43;;
23290;SDS011;11814;44.686;10.842;2023-04-27T02:52:00;10.60;;;6.45;;
23290;SDS011;11814;44.686;10.842;2023-04-27T02:54:25;8.30;;;6.38;;
23290;SDS011;11814;44.686;10.842;2023-04-27T02:56:51;8.77;;;5.95;;
23290;SDS011;11814;44.686;10.842;2023-04-27T02:59:17;12.55;;;6.68;;
23290;SDS011;11814;44.686;10.842;2023-04-27T03:01:43;9.75;;;6.32;;
23290;SDS011;11814;44.686;10.842;2023-04-27T03:04:08;11.13;;;7.18;;
23290;SDS011;11814;44.686;10.842;2023-04-27T03:06:34;8.70;;;7.00;;
23290;SDS011;11814;44.686;10.842;2023-04-27T03:09:00;11.45;;;7.20;;
23290;SDS011;11814;44.686;10.842;2023-04-27T03:11:27;12.95;;;7.97;;
23290;SDS011;11814;44.686;10.842;2023-04-27T03:13:53;11.35;;;6.72;;
23290;SDS011;11814;44.686;10.842;2023-04-27T03:16:19;7.70;;;5.72;;
23290;SDS011;11814;44.686;10.842;2023-04-27T03:18:45;8.82;;;5.72;;
23290;SDS011;11814;44.686;10.842;2023-04-27T03:21:11;7.82;;;5.93;;
23290;SDS011;11814;44.686;10.842;2023-04-27T03:23:38;8.43;;;6.15;;
23290;SDS011;11814;44.686;10.842;2023-04-27T03:26:10;12.25;;;7.18;;
23290;SDS011;11814;44.686;10.842;2023-04-27T03:28:37;12.38;;;7.93;;
23290;SDS011;11814;44.686;10.842;2023-04-27T03:31:07;10.43;;;7.82;;
23290;SDS011;11814;44.686;10.842;2023-04-27T03:33:33;10.90;;;7.55;;
23290;SDS011;11814;44.686;10.842;2023-04-27T03:36:00;8.68;;;7.28;;
23290;SDS011;11814;44.686;10.842;2023-04-27T03:38:28;8.63;;;6.57;;
23290;SDS011;11814;44.686;10.842;2023-04-27T03:40:54;11.20;;;7.65;;
23290;SDS011;11814;44.686;10.842;2023-04-27T03:43:20;12.52;;;8.30;;
23290;SDS011;11814;44.686;10.842;2023-04-27T03:45:47;8.77;;;7.30;;
23290;SDS011;11814;44.686;10.842;2023-04-27T03:48:13;9.57;;;7.88;;
23290;SDS011;11814;44.686;10.842;2023-04-27T03:50:40;19.08;;;8.57;;
23290;SDS011;11814;44.686;10.842;2023-04-27T03:53:07;12.75;;;8.55;;
23290;SDS011;11814;44.686;10.842;2023-04-27T03:55:33;10.73;;;8.57;;
23290;SDS011;11814;44.686;10.842;2023-04-27T03:58:01;9.32;;;6.88;;
23290;SDS011;11814;44.686;10.842;2023-04-27T04:00:27;10.63;;;7.60;;
23290;SDS011;11814;44.686;10.842;2023-04-27T04:02:53;9.18;;;6.90;;
23290;SDS011;11814;44.686;10.842;2023-04-27T04:05:18;9.90;;;8.13;;
23290;SDS011;11814;44.686;10.842;2023-04-27T04:07:44;11.93;;;8.25;;
23290;SDS011;11814;44.686;10.842;2023-04-27T04:10:10;11.70;;;8.82;;
23290;SDS011;11814;44.686;10.842;2023-04-27T04:12:36;10.55;;;8.88;;
23290;SDS011;11814;44.686;10.842;2023-04-27T04:15:02;11.60;;;8.68;;
23290;SDS011;11814;44.686;10.842;2023-04-27T04:17:29;11.43;;;9.02;;
23290;SDS011;11814;44.686;10.842;2023-04-27T04:19:54;10.75;;;8.13;;
23290;SDS011;11814;44.686;10.842;2023-04-27T04:22:20;11.63;;;8.55;;
23290;SDS011;11814;44.686;10.842;2023-04-27T04:24:46;11.60;;;9.07;;
23290;SDS011;11814;44.686;10.842;2023-04-27T04:27:12;11.27;;;8.90;;
23290;SDS011;11814;44.686;10.842;2023-04-27T04:29:38;12.98;;;9.35;;
23290;SDS011;11814;44.686;10.842;2023-04-27T04:32:04;9.70;;;7.63;;
23290;SDS011;11814;44.686;10.842;2023-04-27T04:34:31;12.48;;;9.07;;
23290;SDS011;11814;44.686;10.842;2023-04-27T04:36:57;13.55;;;7.75;;
23290;SDS011;11814;44.686;10.842;2023-04-27T04:39:23;14.25;;;8.85;;
23290;SDS011;11814;44.686;10.842;2023-04-27T04:41:49;11.57;;;7.30;;
23290;SDS011;11814;44.686;10.842;2023-04-27T04:44:15;8.32;;;7.43;;
23290;SDS011;11814;44.686;10.842;2023-04-27T04:46:41;9.05;;;7.80;;
23290;SDS011;11814;44.686;10.842;2023-04-27T04:49:07;12.73;;;7.43;;
23290;SDS011;11814;44.686;10.842;2023-04-27T04:51:33;13.48;;;8.82;;
23290;SDS011;11814;44.686;10.842;2023-04-27T04:53:59;12.52;;;10.18;;
23290;SDS011;11814;44.686;10.842;2023-04-27T04:56:25;12.93;;;9.30;;
23290;SDS011;11814;44.686;10.842;2023-04-27T04:58:51;12.35;;;9.55;;
23290;SDS011;11814;44.686;10.842;2023-04-27T05:01:16;13.75;;;11.27;;
23290;SDS011;11814;44.686;10.842;2023-04-27T05:03:42;13.98;;;9.77;;
23290;SDS011;11814;44.686;10.842;2023-04-27T05:06:08;13.77;;;9.70;;
23290;SDS011;11814;44.686;10.842;2023-04-27T05:08:34;16.77;;;9.48;;
23290;SDS011;11814;44.686;10.842;2023-04-27T05:11:00;14.07;;;9.00;;
23290;SDS011;11814;44.686;10.842;2023-04-27T05:13:25;13.90;;;10.30;;
23290;SDS011;11814;44.686;10.842;2023-04-27T05:15:52;12.57;;;8.93;;
23290;SDS011;11814;44.686;10.842;2023-04-27T05:18:17;15.98;;;10.65;;
23290;SDS011;11814;44.686;10.842;2023-04-27T05:20:43;12.60;;;9.38;;
23290;SDS011;11814;44.686;10.842;2023-04-27T05:23:09;14.02;;;10.20;;
23290;SDS011;11814;44.686;10.842;2023-04-27T05:25:35;12.10;;;10.15;;
23290;SDS011;11814;44.686;10.842;2023-04-27T05:28:07;14.55;;;10.20;;
23290;SDS011;11814;44.686;10.842;2023-04-27T05:30:33;15.48;;;9.07;;
23290;SDS011;11814;44.686;10.842;2023-04-27T05:32:59;11.48;;;8.27;;
23290;SDS011;11814;44.686;10.842;2023-04-27T05:35:25;13.80;;;8.93;;
23290;SDS011;11814;44.686;10.842;2023-04-27T05:37:51;10.70;;;8.13;;
23290;SDS011;11814;44.686;10.842;2023-04-27T05:40:17;10.23;;;7.57;;
23290;SDS011;11814;44.686;10.842;2023-04-27T05:42:44;12.05;;;8.45;;
23290;SDS011;11814;44.686;10.842;2023-04-27T05:45:10;11.43;;;8.32;;
23290;SDS011;11814;44.686;10.842;2023-04-27T05:47:36;12.10;;;8.52;;
23290;SDS011;11814;44.686;10.842;2023-04-27T05:50:02;12.75;;;7.53;;
23290;SDS011;11814;44.686;10.842;2023-04-27T05:52:28;11.38;;;8.77;;
23290;SDS011;11814;44.686;10.842;2023-04-27T05:54:55;10.05;;;8.30;;
23290;SDS011;11814;44.686;10.842;2023-04-27T05:57:22;11.18;;;7.57;;
23290;SDS011;11814;44.686;10.842;2023-04-27T05:59:49;12.60;;;7.85;;
23290;SDS011;11814;44.686;10.842;2023-04-27T06:02:15;12.38;;;8.00;;
23290;SDS011;11814;44.686;10.842;2023-04-27T06:04:42;11.98;;;7.80;;
23290;SDS011;11814;44.686;10.842;2023-04-27T06:07:08;9.15;;;7.75;;
23290;SDS011;11814;44.686;10.842;2023-04-27T06:09:35;11.10;;;7.10;;
23290;SDS011;11814;44.686;10.842;2023-04-27T06:12:01;9.82;;;6.03;;
23290;SDS011;11814;44.686;10.842;2023-04-27T06:14:28;9.45;;;5.78;;
23290;SDS011;11814;44.686;10.842;2023-04-27T06:16:55;10.48;;;6.20;;
23290;SDS011;11814;44.686;10.842;2023-04-27T06:19:21;10.88;;;6.68;;
23290;SDS011;11814;44.686;10.842;2023-04-27T06:21:46;12.75;;;7.35;;
23290;SDS011;11814;44.686;10.842;2023-04-27T06:24:12;7.40;;;6.32;;
23290;SDS011;11814;44.686;10.842;2023-04-27T06:26:38;9.77;;;6.68;;
23290;SDS011;11814;44.686;10.842;2023-04-27T06:29:04;13.35;;;6.47;;
23290;SDS011;11814;44.686;10.842;2023-04-27T06:31:32;9.93;;;6.70;;
23290;SDS011;11814;44.686;10.842;2023-04-27T06:33:58;10.80;;;8.02;;
23290;SDS011;11814;44.686;10.842;2023-04-27T06:36:24;9.82;;;7.10;;
23290;SDS011;11814;44.686;10.842;2023-04-27T06:38:53;8.98;;;7.57;;
23290;SDS011;11814;44.686;10.842;2023-04-27T06:41:21;10.35;;;7.63;;
23290;SDS011;11814;44.686;10.842;2023-04-27T06:43:47;12.15;;;8.57;;
23290;SDS011;11814;44.686;10.842;2023-04-27T06:46:13;11.27;;;7.35;;
23290;SDS011;11814;44.686;10.842;2023-04-27T06:48:39;9.95;;;7.35;;
23290;SDS011;11814;44.686;10.842;2023-04-27T06:51:05;9.13;;;7.05;;
23290;SDS011;11814;44.686;10.842;2023-04-27T06:53:31;12.60;;;7.53;;
23290;SDS011;11814;44.686;10.842;2023-04-27T06:55:57;10.88;;;8.55;;
23290;SDS011;11814;44.686;10.842;2023-04-27T06:58:23;11.45;;;8.32;;
23290;SDS011;11814;44.686;10.842;2023-04-27T07:00:49;11.13;;;8.68;;
23290;SDS011;11814;44.686;10.842;2023-04-27T07:03:14;12.18;;;8.90;;
23290;SDS011;11814;44.686;10.842;2023-04-27T07:05:40;11.00;;;9.23;;
23290;SDS011;11814;44.686;10.842;2023-04-27T07:08:06;14.38;;;8.80;;
23290;SDS011;11814;44.686;10.842;2023-04-27T07:10:32;13.63;;;9.00;;
23290;SDS011;11814;44.686;10.842;2023-04-27T07:12:58;13.07;;;9.13;;
23290;SDS011;11814;44.686;10.842;2023-04-27T07:15:24;10.05;;;8.88;;
23290;SDS011;11814;44.686;10.842;2023-04-27T07:17:53;16.33;;;9.55;;
23290;SDS011;11814;44.686;10.842;2023-04-27T07:20:19;15.82;;;9.30;;
23290;SDS011;11814;44.686;10.842;2023-04-27T07:22:45;12.15;;;9.27;;
23290;SDS011;11814;44.686;10.842;2023-04-27T07:25:10;13.20;;;8.88;;
23290;SDS011;11814;44.686;10.842;2023-04-27T07:27:36;10.02;;;8.32;;
23290;SDS011;11814;44.686;10.842;2023-04-27T07:30:02;14.18;;;9.60;;
23290;SDS011;11814;44.686;10.842;2023-04-27T07:32:31;11.25;;;8.73;;
23290;SDS011;11814;44.686;10.842;2023-04-27T07:34:57;12.85;;;8.13;;
23290;SDS011;11814;44.686;10.842;2023-04-27T07:37:22;10.57;;;7.78;;
23290;SDS011;11814;44.686;10.842;2023-04-27T07:39:49;12.30;;;8.55;;
23290;SDS011;11814;44.686;10.842;2023-04-27T07:42:17;14.43;;;8.57;;
23290;SDS011;11814;44.686;10.842;2023-04-27T07:44:43;13.77;;;7.93;;
23290;SDS011;11814;44.686;10.842;2023-04-27T07:47:08;10.73;;;8.02;;
23290;SDS011;11814;44.686;10.842;2023-04-27T07:49:35;9.43;;;7.97;;
23290;SDS011;11814;44.686;10.842;2023-04-27T07:52:01;11.70;;;7.88;;
23290;SDS011;11814;44.686;10.842;2023-04-27T07:54:28;10.18;;;8.15;;
23290;SDS011;11814;44.686;10.842;2023-04-27T07:56:54;13.40;;;8.02;;
23290;SDS011;11814;44.686;10.842;2023-04-27T07:59:20;11.38;;;7.32;;
23290;SDS011;11814;44.686;10.842;2023-04-27T08:01:46;7.82;;;6.93;;
23290;SDS011;11814;44.686;10.842;2023-04-27T08:04:12;9.82;;;7.10;;
23290;SDS011;11814;44.686;10.842;2023-04-27T08:06:37;11.25;;;6.93;;
23290;SDS011;11814;44.686;10.842;2023-04-27T08:09:03;8.55;;;7.20;;
23290;SDS011;11814;44.686;10.842;2023-04-27T08:11:29;7.68;;;6.88;;
23290;SDS011;11814;44.686;10.842;2023-04-27T08:13:55;11.32;;;7.35;;
23290;SDS011;11814;44.686;10.842;2023-04-27T08:16:21;10.20;;;6.82;;
23290;SDS011;11814;44.686;10.842;2023-04-27T08:18:48;10.63;;;7.15;;
23290;SDS011;11814;44.686;10.842;2023-04-27T08:21:14;9.98;;;7.68;;
23290;SDS011;11814;44.686;10.842;2023-04-27T08:23:40;9.55;;;6.65;;
23290;SDS011;11814;44.686;10.842;2023-04-27T08:26:06;10.23;;;7.63;;
23290;SDS011;11814;44.686;10.842;2023-04-27T08:28:32;8.27;;;6.45;;
23290;SDS011;11814;44.686;10.842;2023-04-27T08:30:58;13.70;;;7.10;;
23290;SDS011;11814;44.686;10.842;2023-04-27T08:33:23;10.40;;;6.18;;
23290;SDS011;11814;44.686;10.842;2023-04-27T08:35:49;10.32;;;7.07;;
23290;SDS011;11814;44.686;10.842;2023-04-27T08:38:18;11.40;;;7.03;;
23290;SDS011;11814;44.686;10.842;2023-04-27T08:40:43;7.72;;;6.88;;
23290;SDS011;11814;44.686;10.842;2023-04-27T08:43:09;10.63;;;6.90;;
23290;SDS011;11814;44.686;10.842;2023-04-27T08:45:35;9.77;;;5.78;;
23290;SDS011;11814;44.686;10.842;2023-04-27T08:48:01;5.65;;;5.15;;
23290;SDS011;11814;44.686;10.842;2023-04-27T08:50:27;7.28;;;6.57;;
23290;SDS011;11814;44.686;10.842;2023-04-27T08:52:54;7.78;;;6.05;;
23290;SDS011;11814;44.686;10.842;2023-04-27T08:55:19;9.25;;;6.60;;
23290;SDS011;11814;44.686;10.842;2023-04-27T08:57:55;8.55;;;7.63;;
23290;SDS011;11814;44.686;10.842;2023-04-27T09:00:22;11.00;;;7.47;;
23290;SDS011;11814;44.686;10.842;2023-04-27T09:02:49;10.75;;;7.60;;
23290;SDS011;11814;44.686;10.842;2023-04-27T09:05:16;10.10;;;7.97;;
23290;SDS011;11814;44.686;10.842;2023-04-27T09:10:47;15.95;;;8.80;;
23290;SDS011;11814;44.686;10.842;2023-04-27T09:13:14;11.95;;;9.48;;
23290;SDS011;11814;44.686;10.842;2023-04-27T09:15:44;12.70;;;9.20;;
23290;SDS011;11814;44.686;10.842;2023-04-27T09:18:14;15.43;;;10.10;;
23290;SDS011;11814;44.686;10.842;2023-04-27T09:20:50;12.10;;;9.18;;
23290;SDS011;11814;44.686;10.842;2023-04-27T09:23:27;15.52;;;10.15;;
23290;SDS011;11814;44.686;10.842;2023-04-27T09:25:56;11.13;;;9.88;;
23290;SDS011;11814;44.686;10.842;2023-04-27T09:28:49;12.07;;;10.00;;
23290;SDS011;11814;44.686;10.842;2023-04-27T09:31:17;13.38;;;9.43;;
23290;SDS011;11814;44.686;10.842;2023-04-27T09:33:43;12.30;;;8.23;;
23290;SDS011;11814;44.686;10.842;2023-04-27T09:36:10;12.70;;;7.70;;
23290;SDS011;11814;44.686;10.842;2023-04-27T09:38:36;10.20;;;8.40;;
23290;SDS011;11814;44.686;10.842;2023-04-27T09:41:02;10.63;;;8.32;;
23290;SDS011;11814;44.686;10.842;2023-04-27T09:43:28;8.55;;;5.18;;
23290;SDS011;11814;44.686;10.842;2023-04-27T09:45:55;7.85;;;5.50;;
23290;SDS011;11814;44.686;10.842;2023-04-27T09:48:22;9.73;;;6.80;;
23290;SDS011;11814;44.686;10.842;2023-04-27T09:50:50;8.07;;;6.55;;
23290;SDS011;11814;44.686;10.842;2023-04-27T09:53:20;10.55;;;5.72;;
23290;SDS011;11814;44.686;10.842;2023-04-27T10:01:56;8.52;;;6.60;;
23290;SDS011;11814;44.686;10.842;2023-04-27T10:07:09;7.93;;;6.45;;
23290;SDS011;11814;44.686;10.842;2023-04-27T10:09:46;8.70;;;6.70;;
23290;SDS011;11814;44.686;10.842;2023-04-27T10:15:10;7.38;;;5.63;;
23290;SDS011;11814;44.686;10.842;2023-04-27T10:17:36;8.85;;;5.60;;
23290;SDS011;11814;44.686;10.842;2023-04-27T10:20:03;8.60;;;6.00;;
23290;SDS011;11814;44.686;10.842;2023-04-27T10:27:41;9.38;;;4.50;;
23290;SDS011;11814;44.686;10.842;2023-04-27T10:30:10;10.60;;;5.05;;
23290;SDS011;11814;44.686;10.842;2023-04-27T10:32:36;7.60;;;6.00;;
23290;SDS011;11814;44.686;10.842;2023-04-27T10:35:03;8.60;;;4.90;;
23290;SDS011;11814;44.686;10.842;2023-04-27T10:37:39;5.35;;;4.47;;
23290;SDS011;11814;44.686;10.842;2023-04-27T10:40:07;5.55;;;4.30;;
23290;SDS011;11814;44.686;10.842;2023-04-27T10:42:34;5.88;;;3.90;;
23290;SDS011;11814;44.686;10.842;2023-04-27T10:45:00;5.53;;;4.03;;
23290;SDS011;11814;44.686;10.842;2023-04-27T10:47:36;6.60;;;3.58;;
23290;SDS011;11814;44.686;10.842;2023-04-27T10:50:03;4.90;;;3.55;;
23290;SDS011;11814;44.686;10.842;2023-04-27T10:52:30;5.32;;;3.95;;
23290;SDS011;11814;44.686;10.842;2023-04-27T10:54:56;4.03;;;3.55;;
23290;SDS011;11814;44.686;10.842;2023-04-27T10:57:22;5.55;;;3.80;;
23290;SDS011;11814;44.686;10.842;2023-04-27T10:59:48;6.35;;;3.30;;
23290;SDS011;11814;44.686;10.842;2023-04-27T11:02:16;5.65;;;3.00;;
23290;SDS011;11814;44.686;10.842;2023-04-27T11:04:48;5.85;;;3.60;;
23290;SDS011;11814;44.686;10.842;2023-04-27T11:07:21;5.20;;;3.67;;
23290;SDS011;11814;44.686;10.842;2023-04-27T11:09:52;4.70;;;3.30;;
23290;SDS011;11814;44.686;10.842;2023-04-27T11:12:18;4.95;;;3.17;;
23290;SDS011;11814;44.686;10.842;2023-04-27T11:14:43;4.20;;;2.67;;
23290;SDS011;11814;44.686;10.842;2023-04-27T11:17:09;3.75;;;2.53;;
23290;SDS011;11814;44.686;10.842;2023-04-27T11:19:46;4.55;;;2.50;;
23290;SDS011;11814;44.686;10.842;2023-04-27T11:22:13;8.57;;;2.30;;
23290;SDS011;11814;44.686;10.842;2023-04-27T11:24:47;4.00;;;2.10;;
23290;SDS011;11814;44.686;10.842;2023-04-27T11:27:14;5.57;;;2.30;;
23290;SDS011;11814;44.686;10.842;2023-04-27T11:29:40;4.30;;;1.60;;
23290;SDS011;11814;44.686;10.842;2023-04-27T11:32:06;4.90;;;2.10;;
23290;SDS011;11814;44.686;10.842;2023-04-27T11:34:32;5.13;;;2.00;;
23290;SDS011;11814;44.686;10.842;2023-04-27T11:37:03;4.18;;;1.70;;
23290;SDS011;11814;44.686;10.842;2023-04-27T11:39:34;2.83;;;1.20;;
23290;SDS011;11814;44.686;10.842;2023-04-27T11:42:17;6.20;;;1.73;;
23290;SDS011;11814;44.686;10.842;2023-04-27T11:44:54;4.53;;;1.85;;
23290;SDS011;11814;44.686;10.842;2023-04-27T11:47:23;4.35;;;1.50;;
23290;SDS011;11814;44.686;10.842;2023-04-27T11:49:53;5.32;;;1.85;;
23290;SDS011;11814;44.686;10.842;2023-04-27T11:52:20;3.35;;;1.30;;
23290;SDS011;11814;44.686;10.842;2023-04-27T11:54:50;4.07;;;1.58;;
23290;SDS011;11814;44.686;10.842;2023-04-27T11:57:23;3.53;;;1.10;;
23290;SDS011;11814;44.686;10.842;2023-04-27T11:59:59;2.70;;;1.52;;
23290;SDS011;11814;44.686;10.842;2023-04-27T12:02:27;1.98;;;1.27;;
23290;SDS011;11814;44.686;10.842;2023-04-27T12:04:54;2.10;;;1.20;;
23290;SDS011;11814;44.686;10.842;2023-04-27T12:07:20;3.47;;;1.70;;
23290;SDS011;11814;44.686;10.842;2023-04-27T12:09:46;2.90;;;1.50;;
23290;SDS011;11814;44.686;10.842;2023-04-27T12:12:12;6.13;;;1.17;;
23290;SDS011;11814;44.686;10.842;2023-04-27T12:14:38;5.38;;;1.55;;
23290;SDS011;11814;44.686;10.842;2023-04-27T12:17:05;2.28;;;1.25;;
23290;SDS011;11814;44.686;10.842;2023-04-27T12:19:31;4.47;;;1.63;;
23290;SDS011;11814;44.686;10.842;2023-04-27T12:21:57;4.25;;;1.13;;
23290;SDS011;11814;44.686;10.842;2023-04-27T12:24:23;2.50;;;1.40;;
23290;SDS011;11814;44.686;10.842;2023-04-27T12:26:49;3.60;;;1.38;;
23290;SDS011;11814;44.686;10.842;2023-04-27T12:29:18;2.00;;;1.35;;
23290;SDS011;11814;44.686;10.842;2023-04-27T12:31:44;5.28;;;1.33;;
23290;SDS011;11814;44.686;10.842;2023-04-27T12:34:10;2.88;;;1.58;;
23290;SDS011;11814;44.686;10.842;2023-04-27T12:36:36;5.47;;;1.17;;
23290;SDS011;11814;44.686;10.842;2023-04-27T12:39:15;2.78;;;1.50;;
23290;SDS011;11814;44.686;10.842;2023-04-27T12:41:44;2.38;;;1.30;;
23290;SDS011;11814;44.686;10.842;2023-04-27T12:44:12;5.82;;;1.60;;
23290;SDS011;11814;44.686;10.842;2023-04-27T12:46:38;2.45;;;1.10;;
23290;SDS011;11814;44.686;10.842;2023-04-27T12:49:05;4.78;;;1.50;;
23290;SDS011;11814;44.686;10.842;2023-04-27T12:51:31;2.35;;;1.10;;
23290;SDS011;11814;44.686;10.842;2023-04-27T12:53:58;5.63;;;1.70;;
23290;SDS011;11814;44.686;10.842;2023-04-27T12:56:25;2.92;;;1.35;;
23290;SDS011;11814;44.686;10.842;2023-04-27T12:58:51;2.75;;;1.40;;
23290;SDS011;11814;44.686;10.842;2023-04-27T13:01:17;2.75;;;1.58;;
23290;SDS011;11814;44.686;10.842;2023-04-27T13:03:43;5.15;;;1.20;;
23290;SDS011;11814;44.686;10.842;2023-04-27T13:06:11;2.78;;;1.20;;
23290;SDS011;11814;44.686;10.842;2023-04-27T13:08:37;5.03;;;1.65;;
23290;SDS011;11814;44.686;10.842;2023-04-27T13:11:03;3.20;;;1.80;;
23290;SDS011;11814;44.686;10.842;2023-04-27T13:13:29;3.20;;;1.60;;
23290;SDS011;11814;44.686;10.842;2023-04-27T13:15:55;4.82;;;1.95;;
23290;SDS011;11814;44.686;10.842;2023-04-27T13:18:22;4.80;;;1.80;;
23290;SDS011;11814;44.686;10.842;2023-04-27T13:20:48;5.70;;;1.60;;
23290;SDS011;11814;44.686;10.842;2023-04-27T13:23:14;2.92;;;1.55;;
23290;SDS011;11814;44.686;10.842;2023-04-27T13:25:40;3.40;;;1.60;;
23290;SDS011;11814;44.686;10.842;2023-04-27T13:28:06;2.40;;;1.25;;
23290;SDS011;11814;44.686;10.842;2023-04-27T13:30:32;3.30;;;1.80;;
23290;SDS011;11814;44.686;10.842;2023-04-27T13:32:58;3.10;;;1.90;;
23290;SDS011;11814;44.686;10.842;2023-04-27T13:35:25;5.05;;;1.88;;
23290;SDS011;11814;44.686;10.842;2023-04-27T13:37:51;3.35;;;1.50;;
23290;SDS011;11814;44.686;10.842;2023-04-27T13:40:18;2.88;;;1.40;;
23290;SDS011;11814;44.686;10.842;2023-04-27T13:42:47;5.57;;;1.30;;
23290;SDS011;11814;44.686;10.842;2023-04-27T13:45:13;3.03;;;1.55;;
23290;SDS011;11814;44.686;10.842;2023-04-27T13:47:39;3.05;;;1.30;;
23290;SDS011;11814;44.686;10.842;2023-04-27T13:50:06;3.47;;;1.15;;
23290;SDS011;11814;44.686;10.842;2023-04-27T13:52:33;2.20;;;1.15;;
23290;SDS011;11814;44.686;10.842;2023-04-27T13:55:03;1.50;;;0.90;;
23290;SDS011;11814;44.686;10.842;2023-04-27T13:57:30;3.72;;;0.90;;
23290;SDS011;11814;44.686;10.842;2023-04-27T13:59:56;2.78;;;1.00;;
23290;SDS011;11814;44.686;10.842;2023-04-27T14:02:24;2.60;;;1.08;;
23290;SDS011;11814;44.686;10.842;2023-04-27T14:04:51;5.28;;;0.80;;
23290;SDS011;11814;44.686;10.842;2023-04-27T14:07:17;1.80;;;0.65;;
23290;SDS011;11814;44.686;10.842;2023-04-27T14:09:43;3.03;;;0.70;;
23290;SDS011;11814;44.686;10.842;2023-04-27T14:12:09;2.78;;;0.60;;
23290;SDS011;11814;44.686;10.842;2023-04-27T14:14:35;1.73;;;0.55;;
23290;SDS011;11814;44.686;10.842;2023-04-27T14:17:01;6.95;;;0.60;;
23290;SDS011;11814;44.686;10.842;2023-04-27T14:19:27;2.53;;;0.57;;
23290;SDS011;11814;44.686;10.842;2023-04-27T14:21:54;3.20;;;1.02;;
23290;SDS011;11814;44.686;10.842;2023-04-27T14:24:20;5.45;;;0.70;;
23290;SDS011;11814;44.686;10.842;2023-04-27T14:26:46;1.33;;;0.60;;
23290;SDS011;11814;44.686;10.842;2023-04-27T14:29:13;2.95;;;0.80;;
23290;SDS011;11814;44.686;10.842;2023-04-27T14:31:39;3.22;;;0.93;;
23290;SDS011;11814;44.686;10.842;2023-04-27T14:34:05;3.78;;;0.60;;
23290;SDS011;11814;44.686;10.842;2023-04-27T14:36:32;1.98;;;0.60;;
23290;SDS011;11814;44.686;10.842;2023-04-27T14:38:58;2.25;;;0.70;;
23290;SDS011;11814;44.686;10.842;2023-04-27T14:41:25;3.45;;;1.08;;
23290;SDS011;11814;44.686;10.842;2023-04-27T14:43:52;5.20;;;0.80;;
23290;SDS011;11814;44.686;10.842;2023-04-27T14:46:18;1.88;;;0.80;;
23290;SDS011;11814;44.686;10.842;2023-04-27T14:48:44;2.58;;;0.80;;